Pagrindinis puslapis
METAR-TAF:

METAR-TAF

Oro uostai :

Resistensija, Argentina

platuma: 27-27S, ilguma: 059-03W, Aukštis: 53 m

Dabartinis oras

Ataskaita buvo paskelbta 53 minutes, ne 15:00 UTC
Vėjas 10 kt iš Rytų/Šiaurės Rytų
Temperatūra 29°C
Drėgmė 37%
Slėgis 1010 hPa
Matomumas 10 km arba daugiau
nėra debesų žemiau 1500 m ir nėra kamuolinių lietaus debesų

METAR: SARE 171500Z 06010KT CAVOK 29/13 Q1010

Laikas: 12:53 (15:53 UTC)

Prognozė

Ataskaita buvo paskelbta 4 valandos ir 53 minutes, ne 11:00 UTC
Prognozė galioja nuo 17 metu 12 UTC su 18 metu 12 UTC
Vėjas 10 kt iš Rytų
Matomumas 10 km arba daugiau
nėra debesų žemiau 1500 m ir nėra kamuolinių lietaus debesų
Tikimybė 40%
nuo 17 metu 15 UTC su 17 metu 20 UTC
Matomumas 10 km arba daugiau
Išsisklaidę debesys ne aukštis 3000 ft

TAF: SARE 171100Z 1712/1812 09010KT CAVOK TX33/1718Z TN20/1810Z PROB40 1715/1720 9999 SCT030

Orai ataskaitas ir orų prognozės (METAR, TAF).

turimą stotys yra geltonos ir raudonos taškus žemėlapyje.

Perkelti pele per norėdami pamatyti stoties vardą.

Tada spustelėkite, norėdami matyti oro stebėjimo ir prognozės.

Norėdami pakeisti žemėlapį: spustelėkite ant žalios mygtukų su juodo kryžiaus žemyn,; žalią mygtuką su brūkšneliu, jei norite nutolinti; arba žalių rodyklių gretimoms žemėlapius.


METAR-TAF: